createdAt,value
2022-12-13T00:00:54.372Z,99293.54
2022-12-13T00:03:40.814Z,99297.87
2022-12-13T00:06:28.693Z,99297.41
2022-12-13T00:09:16.469Z,99304.51
2022-12-13T00:12:03.201Z,99303.97
2022-12-13T00:14:49.909Z,99301.20
2022-12-13T00:17:36.667Z,99301.42
2022-12-13T00:20:23.309Z,99305.52
2022-12-13T00:23:09.902Z,99303.48
2022-12-13T00:25:56.227Z,99310.54
2022-12-13T00:28:43.222Z,99312.17
2022-12-13T00:34:40.767Z,99321.59
2022-12-13T00:37:27.147Z,99324.33
2022-12-13T00:40:13.692Z,99325.86
2022-12-13T00:43:00.179Z,99326.99
2022-12-13T00:45:46.812Z,99333.77
2022-12-13T00:48:33.537Z,99335.63
2022-12-13T00:51:21.087Z,99340.08
2022-12-13T00:54:07.844Z,99338.37
2022-12-13T00:56:54.133Z,99336.42
2022-12-13T00:59:40.696Z,99336.27
2022-12-13T01:02:27.203Z,99338.92
2022-12-13T01:05:14.888Z,99336.91
2022-12-13T01:08:06.052Z,99343.08
2022-12-13T01:10:52.533Z,99343.59
2022-12-13T01:13:40.433Z,99346.15
2022-12-13T01:16:27.250Z,99351.45
2022-12-13T01:19:13.850Z,99351.98
2022-12-13T01:22:03.307Z,99352.00
2022-12-13T01:24:49.982Z,99353.66
2022-12-13T01:27:36.213Z,99353.28
2022-12-13T01:30:24.636Z,99359.00
2022-12-13T01:33:14.313Z,99360.94
2022-12-13T01:36:03.270Z,99360.75
2022-12-13T01:38:49.614Z,99361.23
2022-12-13T01:41:36.942Z,99359.02
2022-12-13T01:44:58.174Z,99360.80
2022-12-13T01:47:48.879Z,99372.36
2022-12-13T01:50:39.611Z,99368.90
2022-12-13T01:53:31.563Z,99370.23
2022-12-13T01:56:23.508Z,99367.98
2022-12-13T01:59:12.563Z,99376.16
2022-12-13T02:02:01.092Z,99379.49
2022-12-13T02:05:06.942Z,99383.91
2022-12-13T02:07:54.241Z,99380.94
2022-12-13T02:10:43.135Z,99382.29
2022-12-13T02:13:29.549Z,99380.48
2022-12-13T02:17:00.726Z,99382.75
2022-12-13T02:20:02.262Z,99381.83
2022-12-13T02:23:00.755Z,99380.27
2022-12-13T02:25:52.960Z,99382.23
2022-12-13T02:29:08.694Z,99382.08
2022-12-13T02:32:03.952Z,99383.55
2022-12-13T02:35:03.477Z,99382.16
2022-12-13T02:38:08.916Z,99385.19
2022-12-13T02:41:04.981Z,99383.80
2022-12-13T02:44:02.072Z,99390.38
2022-12-13T02:47:22.152Z,99385.63
2022-12-13T02:50:11.072Z,99385.65
2022-12-13T02:52:58.569Z,99394.38
2022-12-13T02:55:44.991Z,99398.73
2022-12-13T02:58:35.922Z,99397.58
2022-12-13T03:02:00.747Z,99402.77
2022-12-13T03:05:23.656Z,99400.52
2022-12-13T03:08:20.703Z,99401.67
2022-12-13T03:11:09.762Z,99404.67
2022-12-13T03:14:06.710Z,99404.92
2022-12-13T03:16:55.905Z,99409.95
2022-12-13T03:19:42.968Z,99412.27
2022-12-13T03:22:29.311Z,99405.90
2022-12-13T03:25:31.212Z,99409.79
2022-12-13T03:28:19.406Z,99411.48
2022-12-13T03:31:06.666Z,99410.41
2022-12-13T03:33:53.186Z,99408.39
2022-12-13T03:36:39.843Z,99402.46
2022-12-13T03:39:26.746Z,99404.11
2022-12-13T03:42:13.428Z,99407.51
2022-12-13T03:44:59.924Z,99407.02
2022-12-13T03:47:46.688Z,99407.25
2022-12-13T03:50:34.839Z,99405.25
2022-12-13T03:53:33.791Z,99405.50
2022-12-13T03:56:20.553Z,99403.39
2022-12-13T03:59:07.576Z,99406.77
2022-12-13T04:01:54.026Z,99407.98
2022-12-13T04:04:40.745Z,99406.84
2022-12-13T04:07:27.375Z,99404.65
2022-12-13T04:10:25.877Z,99404.89
2022-12-13T04:13:31.640Z,99411.21
2022-12-13T04:16:18.281Z,99416.64
2022-12-13T04:19:04.943Z,99423.38
2022-12-13T04:21:54.301Z,99420.80
2022-12-13T04:24:41.195Z,99420.71
2022-12-13T04:27:27.816Z,99427.62
2022-12-13T04:30:14.835Z,99424.51
2022-12-13T04:33:01.568Z,99427.81
2022-12-13T04:35:48.532Z,99433.70
2022-12-13T04:38:35.020Z,99436.05
2022-12-13T04:41:22.412Z,99435.98
2022-12-13T04:44:29.090Z,99437.33
2022-12-13T04:47:17.296Z,99437.08
2022-12-13T04:50:04.449Z,99438.44
2022-12-13T04:52:51.299Z,99447.31
2022-12-13T04:55:37.804Z,99445.27
2022-12-13T04:58:24.257Z,99450.24
2022-12-13T05:01:11.833Z,99453.63
2022-12-13T05:03:58.173Z,99456.45
2022-12-13T05:06:44.835Z,99450.58
2022-12-13T05:09:31.514Z,99454.17
2022-12-13T05:12:22.399Z,99456.14
2022-12-13T05:15:10.138Z,99459.91
2022-12-13T05:18:01.808Z,99457.03
2022-12-13T05:20:56.599Z,99454.27
2022-12-13T05:23:43.274Z,99455.45
2022-12-13T05:26:30.115Z,99460.64
2022-12-13T05:29:16.619Z,99461.67
2022-12-13T05:32:04.262Z,99468.56
2022-12-13T05:34:51.439Z,99471.05
2022-12-13T05:37:37.897Z,99473.21
2022-12-13T05:40:26.909Z,99474.52
2022-12-13T05:43:22.109Z,99475.85
2022-12-13T05:46:08.686Z,99485.84
2022-12-13T05:48:55.287Z,99484.96
2022-12-13T05:51:41.454Z,99485.40
2022-12-13T05:54:27.647Z,99484.79
2022-12-13T05:57:14.434Z,99486.08
2022-12-13T06:00:00.976Z,99495.74
2022-12-13T06:02:47.283Z,99500.58
2022-12-13T06:05:34.142Z,99505.86
2022-12-13T06:08:23.961Z,99509.21
2022-12-13T06:11:12.491Z,99507.08
2022-12-13T06:14:22.285Z,99506.38
2022-12-13T06:17:09.676Z,99513.96
2022-12-13T06:19:56.410Z,99521.29
2022-12-13T06:22:43.208Z,99523.55
2022-12-13T06:25:30.477Z,99529.96
2022-12-13T06:28:18.487Z,99529.27
2022-12-13T06:31:06.045Z,99533.21
2022-12-13T06:33:52.992Z,99534.38
2022-12-13T06:36:39.903Z,99537.27
2022-12-13T06:39:26.745Z,99543.57
2022-12-13T06:42:23.823Z,99551.00
2022-12-13T06:45:12.421Z,99553.10
2022-12-13T06:47:59.671Z,99551.07
2022-12-13T06:50:46.291Z,99551.14
2022-12-13T06:53:35.372Z,99553.98
2022-12-13T06:56:23.063Z,99566.02
2022-12-13T06:59:11.018Z,99566.17
2022-12-13T07:02:03.767Z,99568.70
2022-12-13T07:04:52.046Z,99575.97
2022-12-13T07:07:39.208Z,99579.34
2022-12-13T07:10:25.918Z,99584.05
2022-12-13T07:13:12.727Z,99586.38
2022-12-13T07:16:01.085Z,99588.25
2022-12-13T07:18:48.418Z,99596.70
2022-12-13T07:21:36.569Z,99599.75
2022-12-13T07:24:23.590Z,99599.96
2022-12-13T07:27:10.277Z,99604.91
2022-12-13T07:29:58.111Z,99610.19
2022-12-13T07:32:44.724Z,99615.36
2022-12-13T07:35:37.036Z,99615.44
2022-12-13T07:38:24.576Z,99615.34
2022-12-13T07:41:11.771Z,99626.27
2022-12-13T07:43:58.952Z,99628.98
2022-12-13T07:46:45.854Z,99630.30
2022-12-13T07:49:32.679Z,99640.59
2022-12-13T07:52:19.744Z,99641.48
2022-12-13T07:55:07.493Z,99640.25
2022-12-13T07:57:54.584Z,99649.27
2022-12-13T08:00:46.094Z,99651.52
2022-12-13T08:03:33.303Z,99653.48
2022-12-13T08:06:20.026Z,99652.07
2022-12-13T08:09:06.948Z,99656.94
2022-12-13T08:11:53.520Z,99659.85
2022-12-13T08:14:39.975Z,99660.49
2022-12-13T08:17:26.558Z,99662.00
2022-12-13T08:20:13.584Z,99663.77
2022-12-13T08:23:10.751Z,99667.96
2022-12-13T08:25:57.874Z,99668.36
2022-12-13T08:28:46.320Z,99675.87
2022-12-13T08:31:34.030Z,99676.33
2022-12-13T08:34:20.601Z,99677.10
2022-12-13T08:37:07.441Z,99677.80
2022-12-13T08:39:53.981Z,99678.75
2022-12-13T08:42:40.551Z,99681.13
2022-12-13T08:45:27.283Z,99683.38
2022-12-13T08:48:13.704Z,99688.22
2022-12-13T08:51:06.666Z,99687.43
2022-12-13T08:53:53.207Z,99697.55
2022-12-13T08:56:58.044Z,99695.81
2022-12-13T08:59:44.628Z,99698.20
2022-12-13T09:02:31.249Z,99695.23
2022-12-13T09:05:32.997Z,99702.68
2022-12-13T09:08:24.535Z,99708.55
2022-12-13T09:11:22.451Z,99703.98
2022-12-13T09:14:23.587Z,99707.77
2022-12-13T09:17:14.534Z,99704.58
2022-12-13T09:20:28.694Z,99707.13
2022-12-13T09:23:23.853Z,99713.38
2022-12-13T09:26:14.951Z,99717.48
2022-12-13T09:29:11.062Z,99718.30
2022-12-13T09:31:58.313Z,99715.29
2022-12-13T09:34:45.700Z,99719.21
2022-12-13T09:37:32.647Z,99717.44
2022-12-13T09:40:25.780Z,99720.99
2022-12-13T09:43:31.245Z,99721.25
2022-12-13T09:46:27.539Z,99723.89
2022-12-13T09:49:22.960Z,99730.67
2022-12-13T09:52:21.790Z,99728.64
2022-12-13T09:55:21.714Z,99726.89
2022-12-13T09:58:30.375Z,99729.52
2022-12-13T10:01:23.432Z,99734.45
2022-12-13T10:04:15.517Z,99734.65
2022-12-13T10:07:05.494Z,99732.55
2022-12-13T10:10:01.373Z,99732.52
2022-12-13T10:12:55.826Z,99734.32
2022-12-13T10:15:46.688Z,99732.33
2022-12-13T10:18:36.202Z,99735.94
2022-12-13T10:21:29.009Z,99737.79
2022-12-13T10:24:32.736Z,99729.63
2022-12-13T10:27:35.511Z,99731.61
2022-12-13T10:30:28.448Z,99731.48
2022-12-13T10:33:24.386Z,99733.52
2022-12-13T10:36:30.231Z,99731.13
2022-12-13T10:39:19.180Z,99730.27
2022-12-13T10:42:13.936Z,99730.13
2022-12-13T10:45:15.489Z,99727.15
2022-12-13T10:48:04.418Z,99727.60
2022-12-13T10:51:01.193Z,99725.73
2022-12-13T10:53:49.580Z,99726.44
2022-12-13T10:56:42.536Z,99727.23
2022-12-13T10:59:40.211Z,99721.54
2022-12-13T11:02:36.356Z,99723.11
2022-12-13T11:05:36.191Z,99721.16
2022-12-13T11:08:27.837Z,99720.76
2022-12-13T11:11:18.635Z,99718.94
2022-12-13T11:14:05.406Z,99722.63
2022-12-13T11:16:57.625Z,99719.73
2022-12-13T11:19:47.503Z,99715.74
2022-12-13T11:22:37.673Z,99716.33
2022-12-13T11:25:27.048Z,99722.14
2022-12-13T11:28:32.046Z,99721.97
2022-12-13T11:31:40.471Z,99727.48
2022-12-13T11:34:32.911Z,99723.48
2022-12-13T11:37:57.170Z,99725.98
2022-12-13T11:40:49.675Z,99728.86
2022-12-13T11:43:38.561Z,99729.11
2022-12-13T11:46:46.349Z,99730.52
2022-12-13T11:49:41.411Z,99733.46
2022-12-13T11:52:39.243Z,99731.79
2022-12-13T11:55:39.209Z,99735.95
2022-12-13T11:58:53.909Z,99730.90
2022-12-13T12:01:39.465Z,99733.27
2022-12-13T12:04:35.329Z,99724.90
2022-12-13T12:07:33.803Z,99724.55
2022-12-13T12:10:33.667Z,99727.47
2022-12-13T12:13:26.612Z,99738.27
2022-12-13T12:16:31.962Z,99743.02
2022-12-13T12:19:22.454Z,99747.36
2022-12-13T12:22:17.730Z,99747.04
2022-12-13T12:25:29.131Z,99745.91
2022-12-13T12:28:44.663Z,99749.66
2022-12-13T12:32:16.187Z,99752.91
2022-12-13T12:35:41.798Z,99763.34
2022-12-13T12:38:50.966Z,99762.91
2022-12-13T12:41:52.977Z,99765.09
2022-12-13T12:44:51.423Z,99766.61
2022-12-13T12:55:36.311Z,99777.84
2022-12-13T12:58:46.339Z,99784.11
2022-12-13T13:01:52.201Z,99786.59
2022-12-13T13:04:45.836Z,99788.41
2022-12-13T13:07:40.581Z,99785.89
2022-12-13T13:10:27.706Z,99791.66
2022-12-13T13:13:51.739Z,99797.41
2022-12-13T13:16:40.255Z,99796.77
2022-12-13T13:19:31.232Z,99800.61
2022-12-13T13:22:44.242Z,99803.66
2022-12-13T13:25:43.928Z,99805.27
2022-12-13T13:28:40.423Z,99808.52
2022-12-13T13:31:27.761Z,99811.80
2022-12-13T13:34:23.491Z,99816.02
2022-12-13T13:37:23.381Z,99818.79
2022-12-13T13:40:30.171Z,99817.73
2022-12-13T13:43:32.508Z,99816.97
2022-12-13T13:46:19.741Z,99817.54
2022-12-13T13:49:11.698Z,99820.99
2022-12-13T13:52:30.216Z,99825.73
2022-12-13T13:55:41.787Z,99821.60
2022-12-13T13:58:56.491Z,99823.89
2022-12-13T14:02:19.274Z,99822.75
2022-12-13T14:05:43.624Z,99824.38
2022-12-13T14:09:04.580Z,99831.40
2022-12-13T14:12:28.342Z,99832.23
2022-12-13T14:15:49.145Z,99829.65
2022-12-13T14:19:04.948Z,99837.17
2022-12-13T14:22:06.402Z,99837.50
2022-12-13T14:25:23.693Z,99840.00
2022-12-13T14:28:22.062Z,99850.66
2022-12-13T14:31:22.093Z,99852.33
2022-12-13T14:34:19.971Z,99853.17
2022-12-13T14:37:30.533Z,99851.85
2022-12-13T14:40:54.683Z,99848.17
2022-12-13T14:43:45.606Z,99846.33
2022-12-13T14:46:35.085Z,99848.74
2022-12-13T14:49:23.975Z,99854.77
2022-12-13T14:52:39.627Z,99855.81
2022-12-13T14:55:30.376Z,99857.86
2022-12-13T14:58:20.980Z,99857.17
2022-12-13T15:01:31.076Z,99859.59
2022-12-13T15:04:30.729Z,99859.05
2022-12-13T15:07:27.137Z,99856.88
2022-12-13T15:10:37.960Z,99861.04
2022-12-13T15:13:24.987Z,99860.80
2022-12-13T15:16:27.308Z,99861.98
2022-12-13T15:19:31.189Z,99866.43
2022-12-13T15:22:19.347Z,99864.16
2022-12-13T15:25:06.316Z,99866.64
2022-12-13T15:27:55.059Z,99861.88
2022-12-13T15:30:41.841Z,99864.59
2022-12-13T15:33:35.267Z,99865.96
2022-12-13T15:36:27.340Z,99863.50
2022-12-13T15:39:18.269Z,99868.67
2022-12-13T15:42:06.462Z,99866.95
2022-12-13T15:44:59.450Z,99874.73
2022-12-13T15:47:46.923Z,99879.04
2022-12-13T15:50:45.466Z,99879.83
2022-12-13T15:53:37.721Z,99881.02
2022-12-13T15:56:29.893Z,99884.41
2022-12-13T15:59:32.638Z,99880.73
2022-12-13T16:02:24.832Z,99885.16
2022-12-13T16:05:31.490Z,99888.28
2022-12-13T16:08:30.462Z,99888.80
2022-12-13T16:11:30.723Z,99890.48
2022-12-13T16:14:49.674Z,99891.42
2022-12-13T16:17:36.340Z,99890.69
2022-12-13T16:20:23.779Z,99893.27
2022-12-13T16:23:10.445Z,99888.66
2022-12-13T16:26:13.977Z,99890.59
2022-12-13T16:29:00.634Z,99890.83
2022-12-13T16:31:47.872Z,99890.41
2022-12-13T16:34:34.706Z,99894.12
2022-12-13T16:37:27.533Z,99898.96
2022-12-13T16:40:28.612Z,99893.73
2022-12-13T16:43:18.351Z,99898.35
2022-12-13T16:47:13.327Z,99899.70
2022-12-13T16:49:25.168Z,99901.30
2022-12-13T16:52:11.613Z,99899.34
2022-12-13T16:55:00.628Z,99902.52
2022-12-13T16:58:17.442Z,99901.55
2022-12-13T17:01:12.431Z,99904.90
2022-12-13T17:03:58.898Z,99910.75
2022-12-13T17:06:46.233Z,99913.85
2022-12-13T17:09:35.054Z,99921.47
2022-12-13T17:12:21.451Z,99923.66
2022-12-13T17:15:09.468Z,99923.23
2022-12-13T17:17:56.335Z,99921.92
2022-12-13T17:20:42.604Z,99924.12
2022-12-13T17:23:30.300Z,99918.67
2022-12-13T17:26:17.338Z,99919.15
2022-12-13T17:29:05.322Z,99924.59
2022-12-13T17:31:53.341Z,99924.77
2022-12-13T17:34:40.386Z,99924.60
2022-12-13T17:37:26.484Z,99922.28
2022-12-13T17:40:13.014Z,99927.08
2022-12-13T17:42:59.471Z,99928.75
2022-12-13T17:45:46.034Z,99931.63
2022-12-13T17:48:39.783Z,99932.29
2022-12-13T17:51:27.600Z,99935.19
2022-12-13T17:54:14.193Z,99937.29
2022-12-13T17:57:02.636Z,99938.90
2022-12-13T17:59:49.504Z,99943.39
2022-12-13T18:02:39.423Z,99941.73
2022-12-13T18:05:26.285Z,99937.95
2022-12-13T18:08:12.735Z,99937.17
2022-12-13T18:11:30.764Z,99937.86
2022-12-13T18:14:08.278Z,99939.48
2022-12-13T18:16:54.587Z,99941.02
2022-12-13T18:19:41.006Z,99943.85
2022-12-13T18:24:39.617Z,99946.05
2022-12-13T18:27:24.887Z,99945.08
2022-12-13T18:30:31.924Z,99949.34
2022-12-13T18:34:00.432Z,99942.63
2022-12-13T18:58:32.541Z,99967.41
2022-12-13T19:01:19.763Z,99976.24
2022-12-13T19:07:21.400Z,99979.40
2022-12-13T19:12:03.166Z,99985.36
2022-12-13T19:14:54.859Z,99987.10
2022-12-13T19:17:43.919Z,99989.20
2022-12-13T19:20:38.357Z,99991.29
2022-12-13T19:23:24.211Z,99993.88
2022-12-13T19:26:13.375Z,99997.91
2022-12-13T19:28:58.950Z,99996.52
2022-12-13T19:31:52.861Z,99996.04
2022-12-13T19:34:38.571Z,99995.95
2022-12-13T19:37:44.447Z,99997.63
2022-12-13T19:40:29.717Z,99991.61
2022-12-13T19:43:52.937Z,99990.69
2022-12-13T19:46:42.164Z,99992.40
2022-12-13T19:49:27.554Z,99998.75
2022-12-13T19:52:13.078Z,100000.79
2022-12-13T19:54:58.708Z,100004.45
2022-12-13T19:57:43.790Z,100003.53
2022-12-13T20:00:29.375Z,100006.00
2022-12-13T20:03:17.452Z,99999.41
2022-12-13T20:06:04.531Z,100001.95
2022-12-13T20:08:50.637Z,100002.70
2022-12-13T20:11:37.447Z,99998.30
2022-12-13T20:14:22.793Z,100004.31
2022-12-13T20:17:07.897Z,100007.80
2022-12-13T20:19:53.154Z,100007.66
2022-12-13T20:22:48.509Z,100011.45
2022-12-13T20:26:06.261Z,100009.66
2022-12-13T20:29:25.265Z,100013.67
2022-12-13T20:32:15.116Z,100014.44
2022-12-13T20:35:01.819Z,100018.02
2022-12-13T20:37:53.082Z,100018.94
2022-12-13T20:40:39.567Z,100019.17
2022-12-13T20:43:26.714Z,100017.74
2022-12-13T20:46:16.817Z,100022.06
2022-12-13T20:49:14.190Z,100024.10
2022-12-13T20:52:57.170Z,100019.20
2022-12-13T20:57:23.196Z,100022.38
2022-12-13T21:03:15.799Z,100023.61
2022-12-13T21:06:02.316Z,100026.11
2022-12-13T21:08:51.459Z,100031.66
2022-12-13T21:11:46.920Z,100032.63
2022-12-13T21:14:34.367Z,100033.41
2022-12-13T21:17:21.160Z,100033.16
2022-12-13T21:20:08.213Z,100034.00
2022-12-13T21:22:55.065Z,100043.64
2022-12-13T21:25:41.695Z,100046.81
2022-12-13T21:32:55.487Z,100047.41
2022-12-13T21:35:41.784Z,100053.90
2022-12-13T21:38:29.544Z,100051.73
2022-12-13T21:41:18.959Z,100055.20
2022-12-13T21:44:05.924Z,100052.72
2022-12-13T21:48:13.917Z,100052.08
2022-12-13T21:51:01.236Z,100057.32
2022-12-13T21:53:52.090Z,100059.39
2022-12-13T21:56:57.030Z,100057.10
2022-12-13T21:59:43.434Z,100054.93
2022-12-13T22:02:29.973Z,100054.89
2022-12-13T22:05:16.929Z,100052.02
2022-12-13T22:08:03.670Z,100051.66
2022-12-13T22:12:41.556Z,100050.00
2022-12-13T22:15:28.053Z,100049.61
2022-12-13T22:18:35.091Z,100054.44
2022-12-13T22:21:23.547Z,100059.68
2022-12-13T22:24:13.695Z,100062.98
2022-12-13T22:27:26.322Z,100062.86
2022-12-13T22:30:13.117Z,100061.63
2022-12-13T22:32:59.858Z,100055.20
2022-12-13T22:35:46.288Z,100055.27
2022-12-13T22:38:33.123Z,100052.86
2022-12-13T22:41:19.659Z,100055.60
2022-12-13T22:44:05.945Z,100051.38
2022-12-13T22:46:52.636Z,100048.30
2022-12-13T22:51:58.600Z,100051.05
2022-12-13T22:54:45.107Z,100054.39
2022-12-13T22:57:56.797Z,100054.98
2022-12-13T23:00:43.573Z,100054.92
2022-12-13T23:03:30.299Z,100051.89
2022-12-13T23:08:54.429Z,100041.95
2022-12-13T23:12:00.427Z,100041.77
2022-12-13T23:14:47.183Z,100043.60
2022-12-13T23:17:33.781Z,100042.25
2022-12-13T23:20:20.383Z,100044.09
2022-12-13T23:23:07.066Z,100043.89
2022-12-13T23:25:53.593Z,100045.91
2022-12-13T23:28:40.655Z,100044.69
2022-12-13T23:31:30.541Z,100044.81
2022-12-13T23:34:19.109Z,100043.30
2022-12-13T23:37:05.678Z,100044.17
2022-12-13T23:39:52.489Z,100041.52
2022-12-13T23:42:39.177Z,100041.12
2022-12-13T23:45:26.791Z,100045.88
2022-12-13T23:48:13.294Z,100049.13
2022-12-13T23:51:00.860Z,100055.64
2022-12-13T23:53:47.545Z,100055.33
2022-12-13T23:56:34.166Z,100058.16
2022-12-13T23:59:22.951Z,100057.30
